sensor_id;sensor_type;location;lat;lon;timestamp;P1;durP1;ratioP1;P2;durP2;ratioP2
73168;SDS011;61379;59.732;30.468;2023-03-05T00:00:22;11.20;;;10.02;;
73168;SDS011;61379;59.732;30.468;2023-03-05T00:02:48;12.27;;;9.70;;
73168;SDS011;61379;59.732;30.468;2023-03-05T00:05:15;9.32;;;8.43;;
73168;SDS011;61379;59.732;30.468;2023-03-05T00:07:42;9.88;;;8.25;;
73168;SDS011;61379;59.732;30.468;2023-03-05T00:10:09;8.57;;;7.07;;
73168;SDS011;61379;59.732;30.468;2023-03-05T00:12:35;7.97;;;7.18;;
73168;SDS011;61379;59.732;30.468;2023-03-05T00:15:04;8.50;;;7.53;;
73168;SDS011;61379;59.732;30.468;2023-03-05T00:17:31;7.55;;;6.38;;
73168;SDS011;61379;59.732;30.468;2023-03-05T00:19:57;7.57;;;6.88;;
73168;SDS011;61379;59.732;30.468;2023-03-05T00:22:24;8.07;;;7.38;;
73168;SDS011;61379;59.732;30.468;2023-03-05T00:24:51;7.85;;;7.15;;
73168;SDS011;61379;59.732;30.468;2023-03-05T00:27:18;7.43;;;6.82;;
73168;SDS011;61379;59.732;30.468;2023-03-05T00:29:44;7.88;;;7.07;;
73168;SDS011;61379;59.732;30.468;2023-03-05T00:32:12;8.00;;;6.85;;
73168;SDS011;61379;59.732;30.468;2023-03-05T00:34:39;6.97;;;6.38;;
73168;SDS011;61379;59.732;30.468;2023-03-05T00:37:06;7.13;;;6.43;;
73168;SDS011;61379;59.732;30.468;2023-03-05T00:39:32;6.70;;;6.20;;
73168;SDS011;61379;59.732;30.468;2023-03-05T00:41:59;7.47;;;6.78;;
73168;SDS011;61379;59.732;30.468;2023-03-05T00:44:26;7.55;;;6.85;;
73168;SDS011;61379;59.732;30.468;2023-03-05T00:46:52;7.28;;;6.68;;
73168;SDS011;61379;59.732;30.468;2023-03-05T00:49:20;7.90;;;7.20;;
73168;SDS011;61379;59.732;30.468;2023-03-05T00:51:47;7.90;;;6.63;;
73168;SDS011;61379;59.732;30.468;2023-03-05T00:54:14;7.93;;;6.45;;
73168;SDS011;61379;59.732;30.468;2023-03-05T00:56:40;7.22;;;6.63;;
73168;SDS011;61379;59.732;30.468;2023-03-05T00:59:07;7.20;;;6.50;;
73168;SDS011;61379;59.732;30.468;2023-03-05T01:01:34;7.38;;;6.65;;
73168;SDS011;61379;59.732;30.468;2023-03-05T01:04:00;8.60;;;6.72;;
73168;SDS011;61379;59.732;30.468;2023-03-05T01:06:29;7.28;;;6.68;;
73168;SDS011;61379;59.732;30.468;2023-03-05T01:08:57;7.40;;;6.75;;
73168;SDS011;61379;59.732;30.468;2023-03-05T01:11:23;7.50;;;6.80;;
73168;SDS011;61379;59.732;30.468;2023-03-05T01:13:50;9.25;;;8.07;;
73168;SDS011;61379;59.732;30.468;2023-03-05T01:16:17;8.98;;;7.57;;
73168;SDS011;61379;59.732;30.468;2023-03-05T01:18:43;8.27;;;7.38;;
73168;SDS011;61379;59.732;30.468;2023-03-05T01:21:10;9.63;;;8.00;;
73168;SDS011;61379;59.732;30.468;2023-03-05T01:23:38;8.63;;;7.78;;
73168;SDS011;61379;59.732;30.468;2023-03-05T01:26:05;9.57;;;7.50;;
73168;SDS011;61379;59.732;30.468;2023-03-05T01:28:32;8.43;;;7.63;;
73168;SDS011;61379;59.732;30.468;2023-03-05T01:30:59;9.48;;;8.57;;
73168;SDS011;61379;59.732;30.468;2023-03-05T01:33:26;9.05;;;8.25;;
73168;SDS011;61379;59.732;30.468;2023-03-05T01:35:53;8.00;;;7.20;;
73168;SDS011;61379;59.732;30.468;2023-03-05T01:38:20;8.05;;;7.20;;
73168;SDS011;61379;59.732;30.468;2023-03-05T01:40:48;7.80;;;7.10;;
73168;SDS011;61379;59.732;30.468;2023-03-05T01:43:20;7.18;;;6.47;;
73168;SDS011;61379;59.732;30.468;2023-03-05T01:48:32;6.75;;;6.15;;
73168;SDS011;61379;59.732;30.468;2023-03-05T01:50:59;7.03;;;6.40;;
73168;SDS011;61379;59.732;30.468;2023-03-05T01:53:26;6.78;;;6.18;;
73168;SDS011;61379;59.732;30.468;2023-03-05T01:55:54;8.13;;;7.30;;
73168;SDS011;61379;59.732;30.468;2023-03-05T01:58:21;7.18;;;6.57;;
73168;SDS011;61379;59.732;30.468;2023-03-05T02:00:48;7.85;;;7.15;;
73168;SDS011;61379;59.732;30.468;2023-03-05T02:03:15;7.32;;;6.82;;
73168;SDS011;61379;59.732;30.468;2023-03-05T02:05:42;7.50;;;7.00;;
73168;SDS011;61379;59.732;30.468;2023-03-05T02:08:10;6.75;;;6.25;;
73168;SDS011;61379;59.732;30.468;2023-03-05T02:10:37;6.97;;;6.47;;
73168;SDS011;61379;59.732;30.468;2023-03-05T02:13:06;7.75;;;7.15;;
73168;SDS011;61379;59.732;30.468;2023-03-05T02:15:33;7.50;;;6.90;;
73168;SDS011;61379;59.732;30.468;2023-03-05T02:18:01;7.63;;;7.00;;
73168;SDS011;61379;59.732;30.468;2023-03-05T02:20:28;7.45;;;6.75;;
73168;SDS011;61379;59.732;30.468;2023-03-05T02:22:57;6.55;;;6.05;;
73168;SDS011;61379;59.732;30.468;2023-03-05T02:25:24;6.88;;;6.32;;
73168;SDS011;61379;59.732;30.468;2023-03-05T02:27:53;6.78;;;6.07;;
73168;SDS011;61379;59.732;30.468;2023-03-05T02:30:20;7.20;;;6.50;;
73168;SDS011;61379;59.732;30.468;2023-03-05T02:32:47;6.80;;;6.28;;
73168;SDS011;61379;59.732;30.468;2023-03-05T02:35:14;6.32;;;5.72;;
73168;SDS011;61379;59.732;30.468;2023-03-05T02:37:40;6.55;;;6.05;;
73168;SDS011;61379;59.732;30.468;2023-03-05T02:40:12;7.28;;;6.68;;
73168;SDS011;61379;59.732;30.468;2023-03-05T02:42:39;7.85;;;7.25;;
73168;SDS011;61379;59.732;30.468;2023-03-05T02:45:06;7.38;;;6.88;;
73168;SDS011;61379;59.732;30.468;2023-03-05T02:47:33;8.23;;;7.47;;
73168;SDS011;61379;59.732;30.468;2023-03-05T02:50:00;7.82;;;7.22;;
73168;SDS011;61379;59.732;30.468;2023-03-05T02:52:29;8.07;;;7.38;;
73168;SDS011;61379;59.732;30.468;2023-03-05T02:54:56;8.15;;;7.45;;
73168;SDS011;61379;59.732;30.468;2023-03-05T02:57:24;7.47;;;6.93;;
73168;SDS011;61379;59.732;30.468;2023-03-05T02:59:51;7.82;;;7.05;;
73168;SDS011;61379;59.732;30.468;2023-03-05T03:02:17;7.78;;;7.18;;
73168;SDS011;61379;59.732;30.468;2023-03-05T03:04:44;7.32;;;6.63;;
73168;SDS011;61379;59.732;30.468;2023-03-05T03:07:11;7.10;;;6.60;;
73168;SDS011;61379;59.732;30.468;2023-03-05T03:09:38;6.35;;;5.85;;
73168;SDS011;61379;59.732;30.468;2023-03-05T03:12:05;7.10;;;6.50;;
73168;SDS011;61379;59.732;30.468;2023-03-05T03:14:34;6.55;;;6.05;;
73168;SDS011;61379;59.732;30.468;2023-03-05T03:17:04;7.55;;;6.95;;
73168;SDS011;61379;59.732;30.468;2023-03-05T03:19:30;6.95;;;6.45;;
73168;SDS011;61379;59.732;30.468;2023-03-05T03:21:57;6.97;;;6.45;;
73168;SDS011;61379;59.732;30.468;2023-03-05T03:24:24;7.72;;;7.13;;
73168;SDS011;61379;59.732;30.468;2023-03-05T03:26:50;8.10;;;7.50;;
73168;SDS011;61379;59.732;30.468;2023-03-05T03:29:17;7.93;;;7.32;;
73168;SDS011;61379;59.732;30.468;2023-03-05T03:31:45;7.30;;;6.70;;
73168;SDS011;61379;59.732;30.468;2023-03-05T03:34:12;7.35;;;6.65;;
73168;SDS011;61379;59.732;30.468;2023-03-05T03:36:39;7.90;;;7.20;;
73168;SDS011;61379;59.732;30.468;2023-03-05T03:39:06;7.72;;;7.10;;
73168;SDS011;61379;59.732;30.468;2023-03-05T03:41:34;8.25;;;7.45;;
73168;SDS011;61379;59.732;30.468;2023-03-05T03:44:01;8.93;;;8.23;;
73168;SDS011;61379;59.732;30.468;2023-03-05T03:46:29;9.27;;;8.32;;
73168;SDS011;61379;59.732;30.468;2023-03-05T03:48:57;9.85;;;8.90;;
73168;SDS011;61379;59.732;30.468;2023-03-05T03:51:23;9.85;;;8.85;;
73168;SDS011;61379;59.732;30.468;2023-03-05T03:53:50;10.18;;;9.15;;
73168;SDS011;61379;59.732;30.468;2023-03-05T03:56:17;9.15;;;8.45;;
73168;SDS011;61379;59.732;30.468;2023-03-05T03:58:44;9.48;;;8.60;;
73168;SDS011;61379;59.732;30.468;2023-03-05T04:01:10;8.60;;;7.72;;
73168;SDS011;61379;59.732;30.468;2023-03-05T04:03:37;10.35;;;9.15;;
73168;SDS011;61379;59.732;30.468;2023-03-05T04:06:05;9.90;;;9.00;;
73168;SDS011;61379;59.732;30.468;2023-03-05T04:08:32;9.45;;;8.65;;
73168;SDS011;61379;59.732;30.468;2023-03-05T04:10:59;9.75;;;8.75;;
73168;SDS011;61379;59.732;30.468;2023-03-05T04:13:26;9.93;;;8.73;;
73168;SDS011;61379;59.732;30.468;2023-03-05T04:15:52;9.95;;;9.05;;
73168;SDS011;61379;59.732;30.468;2023-03-05T04:18:19;10.15;;;9.02;;
73168;SDS011;61379;59.732;30.468;2023-03-05T04:20:46;9.55;;;8.70;;
73168;SDS011;61379;59.732;30.468;2023-03-05T04:23:14;9.10;;;7.95;;
73168;SDS011;61379;59.732;30.468;2023-03-05T04:25:41;9.48;;;8.57;;
73168;SDS011;61379;59.732;30.468;2023-03-05T04:28:07;10.43;;;9.50;;
73168;SDS011;61379;59.732;30.468;2023-03-05T04:30:34;11.05;;;9.98;;
73168;SDS011;61379;59.732;30.468;2023-03-05T04:33:01;11.18;;;10.18;;
73168;SDS011;61379;59.732;30.468;2023-03-05T04:35:28;11.10;;;10.07;;
73168;SDS011;61379;59.732;30.468;2023-03-05T04:37:54;11.60;;;9.77;;
73168;SDS011;61379;59.732;30.468;2023-03-05T04:40:22;11.88;;;10.52;;
73168;SDS011;61379;59.732;30.468;2023-03-05T04:42:49;13.20;;;10.82;;
73168;SDS011;61379;59.732;30.468;2023-03-05T04:45:16;12.80;;;11.55;;
73168;SDS011;61379;59.732;30.468;2023-03-05T04:47:42;11.82;;;10.70;;
73168;SDS011;61379;59.732;30.468;2023-03-05T04:50:10;13.98;;;11.10;;
73168;SDS011;61379;59.732;30.468;2023-03-05T04:52:38;12.18;;;10.30;;
73168;SDS011;61379;59.732;30.468;2023-03-05T04:55:05;12.18;;;10.30;;
73168;SDS011;61379;59.732;30.468;2023-03-05T04:57:34;12.15;;;9.55;;
73168;SDS011;61379;59.732;30.468;2023-03-05T05:00:00;12.98;;;9.98;;
73168;SDS011;61379;59.732;30.468;2023-03-05T05:02:31;13.70;;;10.98;;
73168;SDS011;61379;59.732;30.468;2023-03-05T05:04:57;12.68;;;10.98;;
73168;SDS011;61379;59.732;30.468;2023-03-05T05:07:24;17.27;;;10.60;;
73168;SDS011;61379;59.732;30.468;2023-03-05T05:09:51;14.75;;;11.30;;
73168;SDS011;61379;59.732;30.468;2023-03-05T05:12:17;11.63;;;10.43;;
73168;SDS011;61379;59.732;30.468;2023-03-05T05:14:45;11.02;;;9.00;;
73168;SDS011;61379;59.732;30.468;2023-03-05T05:17:12;13.93;;;10.52;;
73168;SDS011;61379;59.732;30.468;2023-03-05T05:19:39;11.27;;;10.15;;
73168;SDS011;61379;59.732;30.468;2023-03-05T05:22:05;10.90;;;9.82;;
73168;SDS011;61379;59.732;30.468;2023-03-05T05:24:32;9.93;;;8.93;;
73168;SDS011;61379;59.732;30.468;2023-03-05T05:26:59;10.60;;;9.50;;
73168;SDS011;61379;59.732;30.468;2023-03-05T05:29:25;11.15;;;9.65;;
73168;SDS011;61379;59.732;30.468;2023-03-05T05:31:53;10.68;;;9.57;;
73168;SDS011;61379;59.732;30.468;2023-03-05T05:34:20;10.10;;;8.75;;
73168;SDS011;61379;59.732;30.468;2023-03-05T05:36:49;10.82;;;9.85;;
73168;SDS011;61379;59.732;30.468;2023-03-05T05:39:15;11.10;;;9.90;;
73168;SDS011;61379;59.732;30.468;2023-03-05T05:41:42;12.98;;;10.95;;
73168;SDS011;61379;59.732;30.468;2023-03-05T05:44:09;12.52;;;10.30;;
73168;SDS011;61379;59.732;30.468;2023-03-05T05:46:36;11.27;;;9.43;;
73168;SDS011;61379;59.732;30.468;2023-03-05T05:49:04;10.55;;;9.63;;
73168;SDS011;61379;59.732;30.468;2023-03-05T05:51:30;11.13;;;10.02;;
73168;SDS011;61379;59.732;30.468;2023-03-05T05:53:57;12.52;;;10.95;;
73168;SDS011;61379;59.732;30.468;2023-03-05T05:56:24;10.20;;;9.15;;
73168;SDS011;61379;59.732;30.468;2023-03-05T05:58:50;10.63;;;9.52;;
73168;SDS011;61379;59.732;30.468;2023-03-05T06:01:19;9.27;;;7.57;;
73168;SDS011;61379;59.732;30.468;2023-03-05T06:03:46;10.07;;;8.25;;
73168;SDS011;61379;59.732;30.468;2023-03-05T06:06:15;9.90;;;8.50;;
73168;SDS011;61379;59.732;30.468;2023-03-05T06:08:42;10.27;;;8.45;;
73168;SDS011;61379;59.732;30.468;2023-03-05T06:11:09;12.23;;;8.85;;
73168;SDS011;61379;59.732;30.468;2023-03-05T06:13:35;9.48;;;8.32;;
73168;SDS011;61379;59.732;30.468;2023-03-05T06:16:03;10.55;;;8.40;;
73168;SDS011;61379;59.732;30.468;2023-03-05T06:18:30;9.57;;;8.70;;
73168;SDS011;61379;59.732;30.468;2023-03-05T06:20:58;10.82;;;9.82;;
73168;SDS011;61379;59.732;30.468;2023-03-05T06:23:27;10.82;;;9.45;;
73168;SDS011;61379;59.732;30.468;2023-03-05T06:25:54;10.07;;;9.15;;
73168;SDS011;61379;59.732;30.468;2023-03-05T06:28:21;11.05;;;10.00;;
73168;SDS011;61379;59.732;30.468;2023-03-05T06:30:47;10.88;;;9.77;;
73168;SDS011;61379;59.732;30.468;2023-03-05T06:33:14;10.90;;;9.65;;
73168;SDS011;61379;59.732;30.468;2023-03-05T06:35:41;16.35;;;9.50;;
73168;SDS011;61379;59.732;30.468;2023-03-05T06:38:08;10.70;;;9.60;;
73168;SDS011;61379;59.732;30.468;2023-03-05T06:40:38;10.85;;;9.80;;
73168;SDS011;61379;59.732;30.468;2023-03-05T06:43:05;13.93;;;10.82;;
73168;SDS011;61379;59.732;30.468;2023-03-05T06:45:31;14.20;;;10.55;;
73168;SDS011;61379;59.732;30.468;2023-03-05T06:47:58;11.13;;;9.23;;
73168;SDS011;61379;59.732;30.468;2023-03-05T06:50:25;13.60;;;9.70;;
73168;SDS011;61379;59.732;30.468;2023-03-05T06:52:51;10.57;;;9.50;;
73168;SDS011;61379;59.732;30.468;2023-03-05T06:55:18;11.50;;;9.85;;
73168;SDS011;61379;59.732;30.468;2023-03-05T06:57:46;14.00;;;10.10;;
73168;SDS011;61379;59.732;30.468;2023-03-05T07:00:13;11.50;;;10.30;;
73168;SDS011;61379;59.732;30.468;2023-03-05T07:02:40;14.02;;;10.40;;
73168;SDS011;61379;59.732;30.468;2023-03-05T07:05:07;11.77;;;10.57;;
73168;SDS011;61379;59.732;30.468;2023-03-05T07:07:34;11.70;;;10.27;;
73168;SDS011;61379;59.732;30.468;2023-03-05T07:10:00;11.30;;;10.10;;
73168;SDS011;61379;59.732;30.468;2023-03-05T07:12:29;12.43;;;9.75;;
73168;SDS011;61379;59.732;30.468;2023-03-05T07:14:58;11.88;;;10.07;;
73168;SDS011;61379;59.732;30.468;2023-03-05T07:17:25;11.98;;;10.15;;
73168;SDS011;61379;59.732;30.468;2023-03-05T07:19:51;11.50;;;10.40;;
73168;SDS011;61379;59.732;30.468;2023-03-05T07:22:18;13.13;;;10.38;;
73168;SDS011;61379;59.732;30.468;2023-03-05T07:24:45;10.10;;;9.20;;
73168;SDS011;61379;59.732;30.468;2023-03-05T07:27:11;11.23;;;9.77;;
73168;SDS011;61379;59.732;30.468;2023-03-05T07:29:38;10.95;;;9.85;;
73168;SDS011;61379;59.732;30.468;2023-03-05T07:32:06;9.55;;;8.73;;
73168;SDS011;61379;59.732;30.468;2023-03-05T07:34:33;9.38;;;8.45;;
73168;SDS011;61379;59.732;30.468;2023-03-05T07:37:00;8.57;;;7.68;;
73168;SDS011;61379;59.732;30.468;2023-03-05T07:39:26;9.93;;;7.53;;
73168;SDS011;61379;59.732;30.468;2023-03-05T07:41:53;8.95;;;8.05;;
73168;SDS011;61379;59.732;30.468;2023-03-05T07:44:20;8.90;;;8.10;;
73168;SDS011;61379;59.732;30.468;2023-03-05T07:46:46;9.15;;;8.27;;
73168;SDS011;61379;59.732;30.468;2023-03-05T07:49:14;10.07;;;9.18;;
73168;SDS011;61379;59.732;30.468;2023-03-05T07:51:41;9.63;;;8.73;;
73168;SDS011;61379;59.732;30.468;2023-03-05T07:54:08;9.98;;;8.98;;
73168;SDS011;61379;59.732;30.468;2023-03-05T07:56:35;10.07;;;9.10;;
73168;SDS011;61379;59.732;30.468;2023-03-05T07:59:03;11.88;;;10.90;;
73168;SDS011;61379;59.732;30.468;2023-03-05T08:01:30;12.05;;;9.70;;
73168;SDS011;61379;59.732;30.468;2023-03-05T08:03:57;11.77;;;10.63;;
73168;SDS011;61379;59.732;30.468;2023-03-05T08:06:25;12.10;;;11.20;;
73168;SDS011;61379;59.732;30.468;2023-03-05T08:08:51;11.93;;;10.65;;
73168;SDS011;61379;59.732;30.468;2023-03-05T08:11:18;11.77;;;10.75;;
73168;SDS011;61379;59.732;30.468;2023-03-05T08:13:45;11.35;;;10.43;;
73168;SDS011;61379;59.732;30.468;2023-03-05T08:16:13;11.20;;;10.30;;
73168;SDS011;61379;59.732;30.468;2023-03-05T08:18:40;11.88;;;10.77;;
73168;SDS011;61379;59.732;30.468;2023-03-05T08:21:13;11.30;;;10.35;;
73168;SDS011;61379;59.732;30.468;2023-03-05T08:23:41;11.18;;;10.25;;
73168;SDS011;61379;59.732;30.468;2023-03-05T08:26:10;10.38;;;9.48;;
73168;SDS011;61379;59.732;30.468;2023-03-05T08:28:36;10.93;;;9.93;;
73168;SDS011;61379;59.732;30.468;2023-03-05T08:31:07;11.65;;;10.63;;
73168;SDS011;61379;59.732;30.468;2023-03-05T08:33:33;12.43;;;11.32;;
73168;SDS011;61379;59.732;30.468;2023-03-05T08:36:00;11.63;;;10.48;;
73168;SDS011;61379;59.732;30.468;2023-03-05T08:38:27;11.45;;;10.27;;
73168;SDS011;61379;59.732;30.468;2023-03-05T08:40:55;11.32;;;10.15;;
73168;SDS011;61379;59.732;30.468;2023-03-05T08:43:21;10.98;;;10.07;;
73168;SDS011;61379;59.732;30.468;2023-03-05T08:45:48;10.55;;;9.55;;
73168;SDS011;61379;59.732;30.468;2023-03-05T08:48:15;10.07;;;9.25;;
73168;SDS011;61379;59.732;30.468;2023-03-05T08:50:42;10.50;;;9.57;;
73168;SDS011;61379;59.732;30.468;2023-03-05T08:53:08;10.07;;;9.27;;
73168;SDS011;61379;59.732;30.468;2023-03-05T08:55:35;10.18;;;9.38;;
73168;SDS011;61379;59.732;30.468;2023-03-05T08:58:03;10.82;;;9.20;;
73168;SDS011;61379;59.732;30.468;2023-03-05T09:00:30;8.52;;;7.75;;
73168;SDS011;61379;59.732;30.468;2023-03-05T09:02:57;9.85;;;8.77;;
73168;SDS011;61379;59.732;30.468;2023-03-05T09:05:23;9.00;;;8.13;;
73168;SDS011;61379;59.732;30.468;2023-03-05T09:07:50;9.27;;;8.38;;
73168;SDS011;61379;59.732;30.468;2023-03-05T09:10:17;7.97;;;7.20;;
73168;SDS011;61379;59.732;30.468;2023-03-05T09:12:43;7.57;;;7.07;;
73168;SDS011;61379;59.732;30.468;2023-03-05T09:15:12;9.43;;;7.18;;
73168;SDS011;61379;59.732;30.468;2023-03-05T09:17:38;7.60;;;7.00;;
73168;SDS011;61379;59.732;30.468;2023-03-05T09:20:06;7.72;;;7.22;;
73168;SDS011;61379;59.732;30.468;2023-03-05T09:22:34;8.93;;;8.02;;
73168;SDS011;61379;59.732;30.468;2023-03-05T09:25:00;9.75;;;8.95;;
73168;SDS011;61379;59.732;30.468;2023-03-05T09:27:31;11.23;;;10.02;;
73168;SDS011;61379;59.732;30.468;2023-03-05T09:29:58;11.65;;;10.55;;
73168;SDS011;61379;59.732;30.468;2023-03-05T09:32:26;8.70;;;8.10;;
73168;SDS011;61379;59.732;30.468;2023-03-05T09:34:52;9.55;;;8.85;;
73168;SDS011;61379;59.732;30.468;2023-03-05T09:37:19;10.32;;;8.70;;
73168;SDS011;61379;59.732;30.468;2023-03-05T09:39:46;10.23;;;9.43;;
73168;SDS011;61379;59.732;30.468;2023-03-05T09:42:19;8.57;;;7.97;;
73168;SDS011;61379;59.732;30.468;2023-03-05T09:44:53;9.50;;;8.70;;
73168;SDS011;61379;59.732;30.468;2023-03-05T09:47:28;9.65;;;8.85;;
73168;SDS011;61379;59.732;30.468;2023-03-05T09:50:00;9.30;;;8.60;;
73168;SDS011;61379;59.732;30.468;2023-03-05T09:52:32;10.40;;;9.50;;
73168;SDS011;61379;59.732;30.468;2023-03-05T09:55:00;10.82;;;9.82;;
73168;SDS011;61379;59.732;30.468;2023-03-05T09:57:31;7.90;;;7.13;;
73168;SDS011;61379;59.732;30.468;2023-03-05T10:00:00;8.90;;;8.10;;
73168;SDS011;61379;59.732;30.468;2023-03-05T10:04:59;9.05;;;8.35;;
73168;SDS011;61379;59.732;30.468;2023-03-05T10:07:29;8.70;;;8.00;;
73168;SDS011;61379;59.732;30.468;2023-03-05T10:09:57;9.52;;;8.75;;
73168;SDS011;61379;59.732;30.468;2023-03-05T10:12:25;9.23;;;8.43;;
73168;SDS011;61379;59.732;30.468;2023-03-05T10:14:53;9.50;;;8.70;;
73168;SDS011;61379;59.732;30.468;2023-03-05T10:17:26;8.82;;;8.13;;
73168;SDS011;61379;59.732;30.468;2023-03-05T10:20:18;10.68;;;9.77;;
73168;SDS011;61379;59.732;30.468;2023-03-05T10:22:50;9.82;;;8.93;;
73168;SDS011;61379;59.732;30.468;2023-03-05T10:25:21;10.35;;;9.35;;
73168;SDS011;61379;59.732;30.468;2023-03-05T10:27:50;9.85;;;9.05;;
73168;SDS011;61379;59.732;30.468;2023-03-05T10:30:22;10.95;;;10.05;;
73168;SDS011;61379;59.732;30.468;2023-03-05T10:32:54;10.38;;;9.30;;
73168;SDS011;61379;59.732;30.468;2023-03-05T10:35:30;11.25;;;10.15;;
73168;SDS011;61379;59.732;30.468;2023-03-05T10:38:04;11.02;;;9.38;;
73168;SDS011;61379;59.732;30.468;2023-03-05T10:40:35;11.05;;;9.77;;
73168;SDS011;61379;59.732;30.468;2023-03-05T10:43:06;11.77;;;10.18;;
73168;SDS011;61379;59.732;30.468;2023-03-05T10:45:38;12.90;;;10.30;;
73168;SDS011;61379;59.732;30.468;2023-03-05T10:48:06;10.52;;;8.98;;
73168;SDS011;61379;59.732;30.468;2023-03-05T10:50:39;11.40;;;10.00;;
73168;SDS011;61379;59.732;30.468;2023-03-05T10:53:12;11.75;;;10.73;;
73168;SDS011;61379;59.732;30.468;2023-03-05T10:55:40;10.60;;;9.55;;
73168;SDS011;61379;59.732;30.468;2023-03-05T10:58:10;10.98;;;10.07;;
73168;SDS011;61379;59.732;30.468;2023-03-05T11:00:37;11.18;;;10.07;;
73168;SDS011;61379;59.732;30.468;2023-03-05T11:03:04;11.35;;;10.32;;
73168;SDS011;61379;59.732;30.468;2023-03-05T11:05:35;13.30;;;10.70;;
73168;SDS011;61379;59.732;30.468;2023-03-05T11:08:20;11.07;;;10.07;;
73168;SDS011;61379;59.732;30.468;2023-03-05T11:10:49;11.18;;;10.00;;
73168;SDS011;61379;59.732;30.468;2023-03-05T11:13:27;11.38;;;10.30;;
73168;SDS011;61379;59.732;30.468;2023-03-05T11:15:57;10.65;;;9.57;;
73168;SDS011;61379;59.732;30.468;2023-03-05T11:18:24;10.95;;;9.95;;
73168;SDS011;61379;59.732;30.468;2023-03-05T11:20:53;10.48;;;9.48;;
73168;SDS011;61379;59.732;30.468;2023-03-05T11:23:33;11.38;;;10.02;;
73168;SDS011;61379;59.732;30.468;2023-03-05T11:26:00;10.13;;;8.95;;
73168;SDS011;61379;59.732;30.468;2023-03-05T11:28:29;10.10;;;9.13;;
73168;SDS011;61379;59.732;30.468;2023-03-05T11:30:57;9.80;;;8.90;;
73168;SDS011;61379;59.732;30.468;2023-03-05T11:33:24;12.27;;;9.98;;
73168;SDS011;61379;59.732;30.468;2023-03-05T11:35:52;11.90;;;10.38;;
73168;SDS011;61379;59.732;30.468;2023-03-05T11:38:20;12.30;;;10.40;;
73168;SDS011;61379;59.732;30.468;2023-03-05T11:40:51;11.52;;;10.50;;
73168;SDS011;61379;59.732;30.468;2023-03-05T11:43:20;11.00;;;10.02;;
73168;SDS011;61379;59.732;30.468;2023-03-05T11:45:47;12.52;;;10.35;;
73168;SDS011;61379;59.732;30.468;2023-03-05T11:48:15;10.93;;;9.82;;
73168;SDS011;61379;59.732;30.468;2023-03-05T11:50:44;12.68;;;10.50;;
73168;SDS011;61379;59.732;30.468;2023-03-05T11:53:14;14.68;;;11.77;;
73168;SDS011;61379;59.732;30.468;2023-03-05T11:55:43;13.43;;;11.95;;
73168;SDS011;61379;59.732;30.468;2023-03-05T12:00:54;12.35;;;11.15;;
73168;SDS011;61379;59.732;30.468;2023-03-05T12:03:21;13.52;;;11.80;;
73168;SDS011;61379;59.732;30.468;2023-03-05T12:05:50;12.18;;;10.85;;
73168;SDS011;61379;59.732;30.468;2023-03-05T12:08:19;12.57;;;11.13;;
73168;SDS011;61379;59.732;30.468;2023-03-05T12:10:47;12.80;;;11.60;;
73168;SDS011;61379;59.732;30.468;2023-03-05T12:13:14;15.38;;;12.20;;
73168;SDS011;61379;59.732;30.468;2023-03-05T12:15:46;13.75;;;11.93;;
73168;SDS011;61379;59.732;30.468;2023-03-05T12:18:19;15.75;;;12.55;;
73168;SDS011;61379;59.732;30.468;2023-03-05T12:20:49;14.48;;;12.70;;
73168;SDS011;61379;59.732;30.468;2023-03-05T12:23:20;12.80;;;11.50;;
73168;SDS011;61379;59.732;30.468;2023-03-05T12:25:47;14.27;;;11.45;;
73168;SDS011;61379;59.732;30.468;2023-03-05T12:28:14;12.48;;;10.25;;
73168;SDS011;61379;59.732;30.468;2023-03-05T12:33:32;12.02;;;10.35;;
73168;SDS011;61379;59.732;30.468;2023-03-05T12:38:47;10.32;;;9.30;;
73168;SDS011;61379;59.732;30.468;2023-03-05T12:44:19;8.63;;;8.02;;
73168;SDS011;61379;59.732;30.468;2023-03-05T12:49:32;9.25;;;8.43;;
73168;SDS011;61379;59.732;30.468;2023-03-05T12:52:00;9.15;;;7.90;;
73168;SDS011;61379;59.732;30.468;2023-03-05T12:54:29;9.38;;;8.57;;
73168;SDS011;61379;59.732;30.468;2023-03-05T12:56:57;9.02;;;8.23;;
73168;SDS011;61379;59.732;30.468;2023-03-05T12:59:27;9.15;;;8.30;;
73168;SDS011;61379;59.732;30.468;2023-03-05T13:01:54;9.27;;;8.48;;
73168;SDS011;61379;59.732;30.468;2023-03-05T13:04:23;10.73;;;9.05;;
73168;SDS011;61379;59.732;30.468;2023-03-05T13:07:01;10.95;;;9.80;;
73168;SDS011;61379;59.732;30.468;2023-03-05T13:09:29;11.38;;;9.55;;
73168;SDS011;61379;59.732;30.468;2023-03-05T13:11:57;11.48;;;10.30;;
73168;SDS011;61379;59.732;30.468;2023-03-05T13:14:27;16.02;;;10.85;;
73168;SDS011;61379;59.732;30.468;2023-03-05T13:16:54;14.77;;;11.45;;
73168;SDS011;61379;59.732;30.468;2023-03-05T13:19:21;15.13;;;11.95;;
73168;SDS011;61379;59.732;30.468;2023-03-05T13:21:55;13.07;;;11.48;;
73168;SDS011;61379;59.732;30.468;2023-03-05T13:24:24;12.43;;;11.32;;
73168;SDS011;61379;59.732;30.468;2023-03-05T13:26:50;13.57;;;12.23;;
73168;SDS011;61379;59.732;30.468;2023-03-05T13:29:17;15.00;;;11.65;;
73168;SDS011;61379;59.732;30.468;2023-03-05T13:31:44;18.23;;;11.80;;
73168;SDS011;61379;59.732;30.468;2023-03-05T13:34:15;12.40;;;11.20;;
73168;SDS011;61379;59.732;30.468;2023-03-05T13:36:46;15.77;;;12.70;;
73168;SDS011;61379;59.732;30.468;2023-03-05T13:39:17;13.93;;;12.57;;
73168;SDS011;61379;59.732;30.468;2023-03-05T13:41:55;13.35;;;12.07;;
73168;SDS011;61379;59.732;30.468;2023-03-05T13:44:22;14.88;;;12.00;;
73168;SDS011;61379;59.732;30.468;2023-03-05T13:46:49;14.27;;;11.77;;
73168;SDS011;61379;59.732;30.468;2023-03-05T13:49:16;21.13;;;14.45;;
73168;SDS011;61379;59.732;30.468;2023-03-05T13:51:44;22.85;;;14.73;;
73168;SDS011;61379;59.732;30.468;2023-03-05T13:54:12;21.88;;;16.25;;
73168;SDS011;61379;59.732;30.468;2023-03-05T13:56:47;14.85;;;12.60;;
73168;SDS011;61379;59.732;30.468;2023-03-05T13:59:17;18.13;;;11.80;;
73168;SDS011;61379;59.732;30.468;2023-03-05T14:01:44;13.77;;;11.63;;
73168;SDS011;61379;59.732;30.468;2023-03-05T14:04:17;17.10;;;13.32;;
73168;SDS011;61379;59.732;30.468;2023-03-05T14:06:45;16.48;;;13.30;;
73168;SDS011;61379;59.732;30.468;2023-03-05T14:09:17;12.85;;;11.63;;
73168;SDS011;61379;59.732;30.468;2023-03-05T14:11:50;13.50;;;10.32;;
73168;SDS011;61379;59.732;30.468;2023-03-05T14:14:20;13.80;;;11.50;;
73168;SDS011;61379;59.732;30.468;2023-03-05T14:16:47;16.17;;;12.82;;
73168;SDS011;61379;59.732;30.468;2023-03-05T14:19:27;12.40;;;11.10;;
73168;SDS011;61379;59.732;30.468;2023-03-05T14:21:55;12.00;;;10.65;;
73168;SDS011;61379;59.732;30.468;2023-03-05T14:24:23;16.02;;;11.70;;
73168;SDS011;61379;59.732;30.468;2023-03-05T14:29:22;11.20;;;9.68;;
73168;SDS011;61379;59.732;30.468;2023-03-05T14:31:49;12.63;;;11.15;;
73168;SDS011;61379;59.732;30.468;2023-03-05T14:34:19;15.65;;;13.00;;
73168;SDS011;61379;59.732;30.468;2023-03-05T14:36:46;13.75;;;10.40;;
73168;SDS011;61379;59.732;30.468;2023-03-05T14:39:23;14.48;;;11.57;;
73168;SDS011;61379;59.732;30.468;2023-03-05T14:41:51;26.33;;;15.90;;
73168;SDS011;61379;59.732;30.468;2023-03-05T14:44:18;18.27;;;13.77;;
73168;SDS011;61379;59.732;30.468;2023-03-05T14:46:48;12.27;;;11.02;;
73168;SDS011;61379;59.732;30.468;2023-03-05T14:49:15;12.73;;;11.40;;